createdAt,value
2022-07-30T00:00:53.755Z,8.40
2022-07-30T00:05:56.394Z,8.20
2022-07-30T00:10:58.211Z,8.20
2022-07-30T00:16:00.026Z,8.83
2022-07-30T00:21:02.156Z,9.67
2022-07-30T00:26:06.826Z,9.27
2022-07-30T00:31:12.147Z,9.07
2022-07-30T00:36:14.070Z,10.97
2022-07-30T00:41:21.855Z,10.67
2022-07-30T00:46:23.799Z,10.13
2022-07-30T00:51:25.618Z,9.90
2022-07-30T00:56:27.657Z,11.63
2022-07-30T01:01:33.628Z,11.43
2022-07-30T01:06:35.532Z,10.83
2022-07-30T01:11:39.618Z,11.40
2022-07-30T01:16:43.447Z,10.93
2022-07-30T01:21:50.090Z,10.30
2022-07-30T01:26:52.126Z,11.67
2022-07-30T01:31:56.338Z,10.90
2022-07-30T01:36:59.340Z,10.23
2022-07-30T01:42:05.282Z,10.27
2022-07-30T01:47:09.229Z,11.67
2022-07-30T01:52:12.216Z,10.30
2022-07-30T01:57:14.534Z,12.30
2022-07-30T02:02:18.021Z,10.97
2022-07-30T02:07:24.832Z,11.73
2022-07-30T02:12:30.029Z,11.73
2022-07-30T02:17:45.176Z,11.37
2022-07-30T02:22:47.632Z,11.20
2022-07-30T02:27:53.490Z,10.50
2022-07-30T02:33:10.749Z,11.27
2022-07-30T02:38:13.831Z,11.00
2022-07-30T02:43:20.608Z,9.73
2022-07-30T02:48:34.573Z,10.93
2022-07-30T02:53:38.000Z,11.13
2022-07-30T02:58:44.374Z,10.17
2022-07-30T03:03:49.859Z,11.37
2022-07-30T03:08:52.368Z,11.33
2022-07-30T03:13:54.119Z,10.83
2022-07-30T03:18:57.586Z,10.77
2022-07-30T03:24:00.209Z,10.40
2022-07-30T03:29:04.625Z,11.63
2022-07-30T03:34:07.846Z,10.43
2022-07-30T03:39:10.086Z,10.87
2022-07-30T03:44:14.968Z,11.50
2022-07-30T03:49:19.728Z,11.73
2022-07-30T03:54:25.392Z,11.63
2022-07-30T03:59:28.064Z,13.33
2022-07-30T04:04:30.368Z,11.80
2022-07-30T04:09:32.160Z,12.37
2022-07-30T04:14:44.701Z,12.00
2022-07-30T04:19:56.697Z,11.43
2022-07-30T04:24:59.139Z,11.60
2022-07-30T04:30:01.422Z,10.70
2022-07-30T04:35:04.132Z,12.63
2022-07-30T04:40:06.708Z,13.07
2022-07-30T04:45:09.269Z,12.67
2022-07-30T04:50:13.850Z,13.47
2022-07-30T04:55:16.548Z,13.10
2022-07-30T05:00:18.620Z,14.03
2022-07-30T05:05:20.753Z,14.63
2022-07-30T05:10:22.831Z,13.87
2022-07-30T05:15:37.174Z,14.83
2022-07-30T05:20:39.738Z,14.47
2022-07-30T05:25:41.497Z,14.40
2022-07-30T05:30:44.500Z,15.47
2022-07-30T05:35:46.555Z,14.83
2022-07-30T05:40:48.351Z,13.53
2022-07-30T05:45:50.108Z,13.27
2022-07-30T05:50:51.979Z,14.97
2022-07-30T05:55:53.849Z,16.07
2022-07-30T06:00:55.548Z,16.00
2022-07-30T06:05:57.262Z,17.43
2022-07-30T06:10:59.106Z,17.30
2022-07-30T06:16:00.877Z,17.10
2022-07-30T06:21:02.746Z,17.07
2022-07-30T06:26:04.680Z,17.33
2022-07-30T06:31:09.149Z,17.43
2022-07-30T06:36:17.322Z,18.67
2022-07-30T06:41:19.184Z,19.43
2022-07-30T06:46:23.596Z,18.37
2022-07-30T06:51:25.552Z,17.43
2022-07-30T06:56:29.629Z,16.67
2022-07-30T07:01:34.432Z,15.70
2022-07-30T07:06:39.124Z,14.20
2022-07-30T07:11:44.042Z,14.73
2022-07-30T07:16:49.138Z,14.90
2022-07-30T07:21:51.081Z,13.27
2022-07-30T07:26:52.999Z,12.67
2022-07-30T07:32:06.420Z,13.47
2022-07-30T07:37:09.664Z,12.07
2022-07-30T07:42:11.388Z,12.00
2022-07-30T07:47:13.120Z,11.63
2022-07-30T07:52:14.900Z,11.83
2022-07-30T07:57:16.635Z,11.07
2022-07-30T08:02:19.574Z,11.63
2022-07-30T08:07:21.332Z,9.67
2022-07-30T08:12:25.381Z,10.27
2022-07-30T08:17:27.623Z,11.53
2022-07-30T08:22:29.393Z,11.10
2022-07-30T08:27:37.831Z,10.27
2022-07-30T08:32:41.703Z,9.80
2022-07-30T08:37:45.840Z,9.07
2022-07-30T08:42:47.883Z,9.50
2022-07-30T08:47:50.192Z,9.73
2022-07-30T08:52:55.889Z,9.03
2022-07-30T08:57:57.936Z,8.60
2022-07-30T09:03:01.052Z,8.13
2022-07-30T09:08:08.534Z,8.47
2022-07-30T09:13:26.871Z,7.87
2022-07-30T09:18:39.456Z,6.60
2022-07-30T09:23:41.400Z,5.77
2022-07-30T09:28:43.116Z,5.47
2022-07-30T09:33:47.504Z,5.83
2022-07-30T09:38:53.517Z,5.67
2022-07-30T09:43:55.373Z,5.27
2022-07-30T09:49:17.368Z,4.83
2022-07-30T09:54:21.530Z,5.13
2022-07-30T09:59:27.831Z,4.50
2022-07-30T10:04:37.255Z,4.07
2022-07-30T10:09:45.301Z,3.83
2022-07-30T10:14:49.931Z,3.00
2022-07-30T10:19:51.911Z,5.03
2022-07-30T10:24:54.034Z,4.03
2022-07-30T10:29:56.683Z,4.33
2022-07-30T10:34:58.756Z,3.93
2022-07-30T10:40:06.182Z,4.73
2022-07-30T10:45:46.496Z,3.37
2022-07-30T10:50:53.937Z,4.00
2022-07-30T10:56:25.743Z,3.63
2022-07-30T11:01:51.789Z,3.40
2022-07-30T11:07:30.088Z,3.37
2022-07-30T11:12:45.333Z,4.00
2022-07-30T11:18:12.665Z,3.67
2022-07-30T11:23:35.588Z,3.40
2022-07-30T11:28:46.092Z,3.87
2022-07-30T11:33:51.399Z,2.93
2022-07-30T11:39:05.224Z,3.33
2022-07-30T11:44:28.357Z,3.40
2022-07-30T11:49:35.914Z,2.60
2022-07-30T11:54:54.783Z,3.13
2022-07-30T11:59:58.536Z,3.78
2022-07-30T12:05:00.272Z,3.58
2022-07-30T12:10:26.697Z,2.83
2022-07-30T12:15:31.595Z,3.50
2022-07-30T12:20:33.684Z,2.90
2022-07-30T12:25:39.171Z,2.93
2022-07-30T12:30:50.493Z,3.20
2022-07-30T12:35:57.404Z,3.90
2022-07-30T12:41:04.272Z,3.60
2022-07-30T12:46:06.053Z,3.07
2022-07-30T12:51:09.086Z,3.53
2022-07-30T12:56:31.083Z,3.63
2022-07-30T13:01:43.733Z,3.20
2022-07-30T13:07:09.139Z,3.43
2022-07-30T13:12:15.117Z,2.87
2022-07-30T13:17:18.537Z,3.50
2022-07-30T13:22:20.856Z,2.73
2022-07-30T13:27:23.010Z,2.67
2022-07-30T13:32:24.985Z,3.13
2022-07-30T13:37:38.642Z,3.27
2022-07-30T13:42:40.707Z,3.27
2022-07-30T13:47:43.538Z,3.07
2022-07-30T13:52:45.507Z,4.20
2022-07-30T13:57:47.337Z,4.10
2022-07-30T14:02:50.647Z,3.07
2022-07-30T14:07:52.433Z,3.40
2022-07-30T14:12:55.383Z,3.10
2022-07-30T14:17:58.332Z,3.30
2022-07-30T14:23:00.215Z,2.63
2022-07-30T14:28:01.946Z,3.37
2022-07-30T14:33:04.712Z,2.70
2022-07-30T14:38:06.736Z,2.80
2022-07-30T14:43:08.517Z,3.13
2022-07-30T14:48:10.244Z,2.93
2022-07-30T14:53:11.952Z,2.70
2022-07-30T14:58:14.165Z,2.50
2022-07-30T15:03:16.390Z,2.33
2022-07-30T15:08:18.113Z,3.07
2022-07-30T15:13:19.894Z,2.80
2022-07-30T15:18:22.705Z,2.13
2022-07-30T15:23:24.469Z,2.80
2022-07-30T15:28:26.258Z,2.07
2022-07-30T15:33:28.378Z,2.57
2022-07-30T15:38:30.114Z,2.47
2022-07-30T15:43:31.913Z,2.10
2022-07-30T15:48:33.889Z,2.00
2022-07-30T15:53:35.840Z,2.70
2022-07-30T15:58:43.027Z,3.00
2022-07-30T16:03:45.258Z,7.03
2022-07-30T16:08:47.047Z,2.77
2022-07-30T16:13:49.593Z,1.73
2022-07-30T16:18:51.354Z,2.20
2022-07-30T16:23:53.890Z,2.07
2022-07-30T16:28:55.663Z,2.60
2022-07-30T16:33:57.964Z,1.97
2022-07-30T16:39:01.379Z,2.33
2022-07-30T16:44:04.291Z,2.30
2022-07-30T16:49:07.591Z,2.33
2022-07-30T16:54:09.603Z,2.00
2022-07-30T16:59:13.787Z,1.93
2022-07-30T17:04:16.096Z,1.87
2022-07-30T17:09:18.306Z,2.50
2022-07-30T17:14:22.325Z,2.00
2022-07-30T17:19:24.111Z,2.57
2022-07-30T17:24:25.949Z,1.87
2022-07-30T17:29:27.849Z,1.80
2022-07-30T17:34:30.004Z,2.43
2022-07-30T17:40:26.855Z,2.50
2022-07-30T17:44:56.038Z,1.87
2022-07-30T17:50:00.320Z,2.10
2022-07-30T17:55:02.088Z,1.73
2022-07-30T18:00:05.675Z,1.70
2022-07-30T18:05:08.951Z,1.67
2022-07-30T18:10:11.372Z,1.73
2022-07-30T18:15:16.692Z,1.87
2022-07-30T18:20:18.506Z,2.07
2022-07-30T18:25:25.412Z,2.50
2022-07-30T18:36:27.187Z,2.23
2022-07-30T18:41:29.424Z,2.00
2022-07-30T18:46:31.304Z,2.27
2022-07-30T18:51:33.080Z,1.87
2022-07-30T18:56:35.106Z,2.73
2022-07-30T19:01:39.340Z,1.80
2022-07-30T19:06:41.354Z,1.40
2022-07-30T19:11:43.156Z,2.00
2022-07-30T19:16:46.034Z,17.10
2022-07-30T19:21:49.148Z,2.50
2022-07-30T19:26:51.214Z,23.83
2022-07-30T19:31:53.103Z,3.70
2022-07-30T19:36:54.895Z,5.00
2022-07-30T19:41:56.723Z,1.57
2022-07-30T19:46:59.978Z,1.40
2022-07-30T19:52:11.357Z,1.50
2022-07-30T19:57:24.636Z,1.50
2022-07-30T20:02:49.067Z,1.93
2022-07-30T20:07:50.981Z,2.20
2022-07-30T20:12:56.042Z,1.57
2022-07-30T20:17:58.683Z,2.07
2022-07-30T20:23:00.492Z,1.80
2022-07-30T20:28:02.272Z,1.60
2022-07-30T20:33:04.405Z,1.37
2022-07-30T20:38:10.184Z,1.53
2022-07-30T20:43:12.506Z,1.57
2022-07-30T20:48:25.541Z,1.83
2022-07-30T20:53:33.504Z,1.97
2022-07-30T20:58:38.615Z,2.00
2022-07-30T21:03:43.511Z,1.70
2022-07-30T21:08:49.811Z,2.07
2022-07-30T21:13:53.012Z,1.40
2022-07-30T21:18:56.815Z,4.30
2022-07-30T21:23:58.970Z,6.77
2022-07-30T21:29:01.623Z,2.83
2022-07-30T21:34:03.415Z,2.23
2022-07-30T21:39:05.533Z,1.53
2022-07-30T21:44:07.392Z,1.70
2022-07-30T21:49:09.153Z,1.90
2022-07-30T21:54:13.920Z,1.83
2022-07-30T21:59:18.927Z,1.93
2022-07-30T22:04:23.956Z,4.03
2022-07-30T22:09:32.998Z,2.67
2022-07-30T22:14:36.234Z,1.97
2022-07-30T22:19:38.330Z,1.70
2022-07-30T22:24:40.078Z,1.40
2022-07-30T22:29:43.017Z,1.83
2022-07-30T22:34:45.308Z,1.60
2022-07-30T22:39:50.254Z,1.87
2022-07-30T22:44:54.906Z,1.90
2022-07-30T22:49:58.044Z,1.60
2022-07-30T22:55:09.326Z,2.33
2022-07-30T23:00:13.743Z,2.23
2022-07-30T23:05:16.522Z,1.60
2022-07-30T23:10:20.709Z,1.27
2022-07-30T23:15:25.972Z,1.90
2022-07-30T23:20:27.837Z,1.50
2022-07-30T23:25:34.603Z,1.63
2022-07-30T23:30:40.583Z,1.60
2022-07-30T23:35:43.591Z,1.53
2022-07-30T23:40:45.545Z,2.00
2022-07-30T23:45:47.261Z,2.20
2022-07-30T23:50:49.069Z,1.93
2022-07-30T23:55:51.349Z,2.03
